createdAt,value
2017-11-06T00:01:11.333Z,101924.72
2017-11-06T00:03:39.654Z,101920.54
2017-11-06T00:06:08.694Z,101922.09
2017-11-06T00:08:36.977Z,101926.23
2017-11-06T00:11:05.254Z,101933.86
2017-11-06T00:13:33.566Z,101940.27
2017-11-06T00:16:01.906Z,101946.56
2017-11-06T00:18:30.190Z,101945.80
2017-11-06T00:20:58.496Z,101957.84
2017-11-06T00:23:26.805Z,101963.27
2017-11-06T00:25:55.086Z,101971.55
2017-11-06T00:28:23.394Z,101976.81
2017-11-06T00:30:51.693Z,101979.20
2017-11-06T00:33:19.999Z,101990.06
2017-11-06T00:35:48.284Z,101970.52
2017-11-06T00:38:16.632Z,101971.20
2017-11-06T00:40:44.922Z,101974.35
2017-11-06T00:43:13.263Z,101968.77
2017-11-06T00:45:42.325Z,101958.86
2017-11-06T00:48:10.620Z,101959.01
2017-11-06T00:50:38.903Z,101971.46
2017-11-06T00:53:07.188Z,101974.27
2017-11-06T00:55:35.556Z,101979.73
2017-11-06T00:58:03.838Z,101982.55
2017-11-06T01:00:32.981Z,101987.97
2017-11-06T01:03:02.053Z,101983.45
2017-11-06T01:05:30.339Z,101987.92
2017-11-06T01:07:59.410Z,101988.86
2017-11-06T01:10:27.697Z,101988.73
2017-11-06T01:12:56.042Z,101998.30
2017-11-06T01:15:24.360Z,102008.73
2017-11-06T01:17:52.656Z,102010.53
2017-11-06T01:20:20.944Z,102009.13
2017-11-06T01:22:49.231Z,102018.16
2017-11-06T01:25:18.304Z,102014.89
2017-11-06T01:27:46.623Z,102025.77
2017-11-06T01:30:15.818Z,102025.30
2017-11-06T01:32:44.174Z,102028.33
2017-11-06T01:35:12.533Z,102028.62
2017-11-06T01:37:40.822Z,102027.55
2017-11-06T01:40:09.207Z,102027.77
2017-11-06T01:42:37.530Z,102033.45
2017-11-06T01:45:05.838Z,102038.56
2017-11-06T01:47:34.134Z,102036.23
2017-11-06T01:50:02.430Z,102045.25
2017-11-06T01:52:30.812Z,102053.29
2017-11-06T01:54:59.124Z,102062.31
2017-11-06T01:57:28.943Z,102069.23
2017-11-06T01:59:58.755Z,102069.31
2017-11-06T02:02:27.492Z,102063.52
2017-11-06T02:04:55.794Z,102066.38
2017-11-06T02:07:24.107Z,102069.45
2017-11-06T02:09:52.400Z,102073.50
2017-11-06T02:12:20.680Z,102070.23
2017-11-06T02:14:48.994Z,102072.57
2017-11-06T02:17:17.285Z,102066.98
2017-11-06T02:19:45.575Z,102077.68
2017-11-06T02:22:13.859Z,102074.83
2017-11-06T02:24:42.150Z,102072.02
2017-11-06T02:27:10.450Z,102071.95
2017-11-06T02:29:38.735Z,102078.17
2017-11-06T02:32:07.020Z,102073.91
2017-11-06T02:34:36.828Z,102074.06
2017-11-06T02:37:05.205Z,102081.73
2017-11-06T02:39:33.499Z,102085.50
2017-11-06T02:42:03.302Z,102092.80
2017-11-06T02:44:31.611Z,102100.68
2017-11-06T02:46:59.916Z,102104.50
2017-11-06T02:49:28.207Z,102108.86
2017-11-06T02:51:56.493Z,102095.98
2017-11-06T02:54:24.780Z,102079.78
2017-11-06T02:56:53.084Z,102076.51
2017-11-06T02:59:21.470Z,102088.14
2017-11-06T03:01:49.764Z,102090.73
2017-11-06T03:04:18.160Z,102094.94
2017-11-06T03:06:46.452Z,102097.24
2017-11-06T03:09:15.516Z,102097.27
2017-11-06T03:11:43.803Z,102104.45
2017-11-06T03:14:12.094Z,102104.50
2017-11-06T03:16:41.196Z,102105.69
2017-11-06T03:19:09.482Z,102108.00
2017-11-06T03:21:37.846Z,102112.89
2017-11-06T03:24:06.136Z,102110.31
2017-11-06T03:26:34.424Z,102105.14
2017-11-06T03:29:04.235Z,102105.44
2017-11-06T03:31:32.512Z,102111.38
2017-11-06T03:34:00.794Z,102113.20
2017-11-06T03:36:29.849Z,102108.09
2017-11-06T03:38:58.226Z,102128.58
2017-11-06T03:41:26.509Z,102131.14
2017-11-06T03:43:54.827Z,102135.19
2017-11-06T03:46:23.149Z,102137.45
2017-11-06T03:48:52.204Z,102144.43
2017-11-06T03:51:20.550Z,102142.66
2017-11-06T03:53:48.832Z,102147.63
2017-11-06T03:56:17.119Z,102153.09
2017-11-06T03:58:45.409Z,102147.50
2017-11-06T04:01:13.701Z,102148.63
2017-11-06T04:03:42.051Z,102155.06
2017-11-06T04:06:10.347Z,102156.19
2017-11-06T04:08:38.751Z,102151.48
2017-11-06T04:11:07.143Z,102157.20
2017-11-06T04:13:35.427Z,102159.86
2017-11-06T04:16:03.752Z,102168.61
2017-11-06T04:18:32.792Z,102174.06
2017-11-06T04:21:01.095Z,102182.73
2017-11-06T04:23:29.380Z,102167.02
2017-11-06T04:25:57.689Z,102179.45
2017-11-06T04:28:26.733Z,102180.57
2017-11-06T04:30:55.033Z,102188.54
2017-11-06T04:33:23.323Z,102197.00
2017-11-06T04:35:51.668Z,102203.49
2017-11-06T04:38:19.976Z,102210.34
2017-11-06T04:40:48.274Z,102208.52
2017-11-06T04:43:16.547Z,102212.45
2017-11-06T04:45:46.440Z,102220.34
2017-11-06T04:48:14.749Z,102229.43
2017-11-06T04:50:43.808Z,102231.48
2017-11-06T04:53:12.111Z,102230.16
2017-11-06T04:55:40.490Z,102242.23
2017-11-06T04:58:08.844Z,102239.30
2017-11-06T05:00:37.148Z,102244.12
2017-11-06T05:03:05.438Z,102243.84
2017-11-06T05:05:33.811Z,102243.00
2017-11-06T05:08:02.147Z,102251.05
2017-11-06T05:10:31.293Z,102254.61
2017-11-06T05:12:59.583Z,102257.83
2017-11-06T05:15:27.864Z,102259.79
2017-11-06T05:17:56.165Z,102267.16
2017-11-06T05:20:24.485Z,102273.59
2017-11-06T05:22:52.782Z,102271.43
2017-11-06T05:25:21.074Z,102273.11
2017-11-06T05:27:49.352Z,102272.41
2017-11-06T05:30:17.646Z,102268.22
2017-11-06T05:32:45.956Z,102271.92
2017-11-06T05:35:15.755Z,102272.48
2017-11-06T05:37:44.056Z,102278.38
2017-11-06T05:40:13.880Z,102276.01
2017-11-06T05:42:42.212Z,102286.00
2017-11-06T05:45:10.646Z,102280.97
2017-11-06T05:47:38.942Z,102283.34
2017-11-06T05:50:08.061Z,102293.20
2017-11-06T05:52:36.528Z,102286.80
2017-11-06T05:55:05.563Z,102295.67
2017-11-06T05:57:33.880Z,102293.62
2017-11-06T06:00:03.747Z,102303.27
2017-11-06T06:02:32.050Z,102308.36
2017-11-06T06:05:00.362Z,102322.20
2017-11-06T06:07:30.180Z,102323.67
2017-11-06T06:10:00.008Z,102324.44
2017-11-06T06:12:29.071Z,102321.89
2017-11-06T06:14:57.368Z,102319.16
2017-11-06T06:17:27.422Z,102324.27
2017-11-06T06:19:56.464Z,102317.98
2017-11-06T06:22:24.752Z,102329.23
2017-11-06T06:24:53.058Z,102333.53
2017-11-06T06:27:22.140Z,102338.08
2017-11-06T06:29:50.486Z,102347.86
2017-11-06T06:32:18.777Z,102346.75
2017-11-06T06:34:47.158Z,102355.95
2017-11-06T06:37:15.450Z,102352.59
2017-11-06T06:39:43.732Z,102356.92
2017-11-06T06:42:12.046Z,102363.08
2017-11-06T06:44:40.382Z,102374.23
2017-11-06T06:47:08.669Z,102375.84
2017-11-06T06:49:36.978Z,102377.45
2017-11-06T06:52:05.416Z,102384.93
2017-11-06T06:54:33.705Z,102394.80
2017-11-06T06:57:02.010Z,102399.27
2017-11-06T06:59:30.322Z,102400.52
2017-11-06T07:01:58.602Z,102406.82
2017-11-06T07:04:26.918Z,102403.74
2017-11-06T07:06:55.200Z,102406.81
2017-11-06T07:09:23.501Z,102409.61
2017-11-06T07:11:51.872Z,102416.47
2017-11-06T07:14:20.196Z,102415.48
2017-11-06T07:16:48.489Z,102416.92
2017-11-06T07:19:16.785Z,102424.83
2017-11-06T07:21:45.850Z,102428.88
2017-11-06T07:24:14.317Z,102429.81
2017-11-06T07:26:42.638Z,102432.08
2017-11-06T07:29:11.700Z,102432.49
2017-11-06T07:31:40.005Z,102434.72
2017-11-06T07:34:08.309Z,102431.73
2017-11-06T07:36:37.400Z,102431.41
2017-11-06T07:39:05.710Z,102439.94
2017-11-06T07:41:34.015Z,102440.14
2017-11-06T07:44:02.327Z,102435.72
2017-11-06T07:46:30.612Z,102448.62
2017-11-06T07:48:59.684Z,102449.88
2017-11-06T07:51:27.993Z,102453.87
2017-11-06T07:53:57.867Z,102456.94
2017-11-06T07:56:26.164Z,102460.39
2017-11-06T07:58:54.474Z,102458.55
2017-11-06T08:01:22.800Z,102463.16
2017-11-06T08:03:51.124Z,102462.52
2017-11-06T08:06:19.584Z,102463.30
2017-11-06T08:08:47.868Z,102465.60
2017-11-06T08:11:16.178Z,102470.64
2017-11-06T08:13:44.466Z,102473.47
2017-11-06T08:16:12.759Z,102470.92
2017-11-06T08:18:41.135Z,102475.31
2017-11-06T08:21:09.416Z,102475.44
2017-11-06T08:23:39.240Z,102477.78
2017-11-06T08:26:07.532Z,102473.48
2017-11-06T08:28:36.600Z,102482.02
2017-11-06T08:31:04.911Z,102484.73
2017-11-06T08:33:33.974Z,102488.59
2017-11-06T08:36:02.374Z,102495.38
2017-11-06T08:38:31.523Z,102490.91
2017-11-06T08:40:59.811Z,102492.84
2017-11-06T08:43:28.112Z,102505.04
2017-11-06T08:45:56.449Z,102498.77
2017-11-06T08:48:24.743Z,102503.27
2017-11-06T08:50:53.058Z,102501.56
2017-11-06T08:53:21.386Z,102500.64
2017-11-06T08:55:50.433Z,102505.08
2017-11-06T08:58:18.737Z,102510.38
2017-11-06T09:00:47.818Z,102520.44
2017-11-06T09:03:16.149Z,102517.29
2017-11-06T09:05:45.201Z,102518.51
2017-11-06T09:08:13.550Z,102521.45
2017-11-06T09:10:41.844Z,102521.34
2017-11-06T09:13:10.234Z,102522.10
2017-11-06T09:15:38.520Z,102522.98
2017-11-06T09:18:06.807Z,102533.95
2017-11-06T09:20:35.136Z,102539.41
2017-11-06T09:23:04.200Z,102546.46
2017-11-06T09:25:32.510Z,102558.39
2017-11-06T09:28:01.589Z,102550.94
2017-11-06T09:30:31.413Z,102558.92
2017-11-06T09:33:00.556Z,102558.82
2017-11-06T09:35:28.858Z,102560.62
2017-11-06T09:37:57.196Z,102571.84
2017-11-06T09:40:26.274Z,102564.77
2017-11-06T09:42:54.567Z,102567.80
2017-11-06T09:45:22.878Z,102567.08
2017-11-06T09:47:51.171Z,102569.83
2017-11-06T09:50:19.482Z,102572.16
2017-11-06T09:52:47.806Z,102580.35
2017-11-06T09:55:16.869Z,102576.16
2017-11-06T09:57:45.185Z,102574.65
2017-11-06T10:00:14.246Z,102575.40
2017-11-06T10:02:42.541Z,102583.06
2017-11-06T10:05:10.857Z,102576.78
2017-11-06T10:07:39.173Z,102584.98
2017-11-06T10:10:07.479Z,102577.45
2017-11-06T10:12:35.788Z,102578.45
2017-11-06T10:15:04.866Z,102586.25
2017-11-06T10:17:33.200Z,102582.66
2017-11-06T10:20:01.535Z,102589.91
2017-11-06T10:22:30.704Z,102584.50
2017-11-06T10:24:59.005Z,102590.38
2017-11-06T10:27:27.368Z,102591.19
2017-11-06T10:29:55.680Z,102590.81
2017-11-06T10:32:24.032Z,102595.08
2017-11-06T10:34:52.349Z,102590.73
2017-11-06T10:37:21.425Z,102592.33
2017-11-06T10:39:49.750Z,102586.05
2017-11-06T10:42:18.806Z,102593.50
2017-11-06T10:44:47.119Z,102594.41
2017-11-06T10:47:16.217Z,102596.83
2017-11-06T10:49:45.275Z,102595.76
2017-11-06T10:52:13.589Z,102595.96
2017-11-06T10:54:41.949Z,102599.89
2017-11-06T10:57:10.254Z,102591.38
2017-11-06T10:59:39.319Z,102594.12
2017-11-06T11:02:08.104Z,102593.72
2017-11-06T11:04:36.440Z,102590.39
2017-11-06T11:07:05.672Z,102597.94
2017-11-06T11:09:33.985Z,102597.36
2017-11-06T11:12:02.328Z,102594.16
2017-11-06T11:14:30.630Z,102596.02
2017-11-06T11:16:58.952Z,102590.49
2017-11-06T11:19:27.240Z,102588.00
2017-11-06T11:21:56.347Z,102588.81
2017-11-06T11:24:25.412Z,102593.40
2017-11-06T11:26:53.733Z,102596.01
2017-11-06T11:29:22.787Z,102605.11
2017-11-06T11:31:51.093Z,102600.65
2017-11-06T11:34:19.388Z,102595.34
2017-11-06T11:36:48.481Z,102592.00
2017-11-06T11:39:17.545Z,102598.39
2017-11-06T11:41:45.975Z,102599.86
2017-11-06T11:44:15.043Z,102599.61
2017-11-06T11:46:43.337Z,102602.29
2017-11-06T11:49:11.650Z,102592.16
2017-11-06T11:51:40.534Z,102602.12
2017-11-06T11:54:09.601Z,102606.72
2017-11-06T11:56:37.909Z,102614.81
2017-11-06T11:59:06.971Z,102615.56
2017-11-06T12:01:35.264Z,102610.73
2017-11-06T12:04:04.341Z,102611.42
2017-11-06T12:06:32.647Z,102607.84
2017-11-06T12:09:00.944Z,102607.78
2017-11-06T12:11:30.089Z,102611.81
2017-11-06T12:13:58.379Z,102603.40
2017-11-06T12:16:26.681Z,102610.47
2017-11-06T12:18:54.975Z,102614.17
2017-11-06T12:21:23.295Z,102610.06
2017-11-06T12:23:51.600Z,102616.83
2017-11-06T12:26:19.910Z,102610.11
2017-11-06T12:28:48.203Z,102615.97
2017-11-06T12:31:16.522Z,102611.66
2017-11-06T12:33:44.823Z,102614.47
2017-11-06T12:36:13.184Z,102616.61
2017-11-06T12:38:42.245Z,102609.77
2017-11-06T12:41:10.564Z,102614.62
2017-11-06T12:43:38.873Z,102616.58
2017-11-06T12:46:07.168Z,102619.58
2017-11-06T12:48:35.467Z,102611.21
2017-11-06T12:51:03.769Z,102612.66
2017-11-06T12:53:32.869Z,102608.89
2017-11-06T12:56:01.949Z,102602.87
2017-11-06T12:58:30.243Z,102605.05
2017-11-06T13:00:59.372Z,102610.80
2017-11-06T13:03:27.667Z,102601.09
2017-11-06T13:05:56.811Z,102597.89
2017-11-06T13:08:25.175Z,102595.09
2017-11-06T13:10:53.501Z,102599.56
2017-11-06T13:13:21.803Z,102590.40
2017-11-06T13:15:50.229Z,102597.59
2017-11-06T13:18:18.524Z,102599.86
2017-11-06T13:20:46.835Z,102599.69
2017-11-06T13:23:15.163Z,102599.66
2017-11-06T13:25:43.496Z,102601.23
2017-11-06T13:28:11.805Z,102602.58
2017-11-06T13:30:40.735Z,102611.66
2017-11-06T13:33:09.035Z,102610.31
2017-11-06T13:35:38.121Z,102609.94
2017-11-06T13:38:06.439Z,102610.41
2017-11-06T13:40:34.799Z,102614.21
2017-11-06T13:43:03.916Z,102609.31
2017-11-06T13:45:32.235Z,102619.86
2017-11-06T13:48:00.543Z,102614.48
2017-11-06T13:50:28.837Z,102624.61
2017-11-06T13:52:57.131Z,102623.52
2017-11-06T13:55:26.207Z,102621.01
2017-11-06T13:57:54.501Z,102626.05
2017-11-06T14:00:22.848Z,102631.91
2017-11-06T14:02:51.198Z,102638.16
2017-11-06T14:05:19.503Z,102630.87
2017-11-06T14:07:47.822Z,102637.67
2017-11-06T14:10:16.184Z,102635.70
2017-11-06T14:12:44.495Z,102642.40
2017-11-06T14:15:13.557Z,102646.75
2017-11-06T14:17:41.988Z,102646.38
2017-11-06T14:20:10.320Z,102651.31
2017-11-06T14:22:38.706Z,102655.05
2017-11-06T14:25:07.083Z,102663.80
2017-11-06T14:27:35.381Z,102659.58
2017-11-06T14:30:03.693Z,102664.14
2017-11-06T14:32:32.818Z,102661.63
2017-11-06T14:35:01.119Z,102656.09
2017-11-06T14:37:29.435Z,102666.83
2017-11-06T14:39:58.522Z,102667.58
2017-11-06T14:42:26.819Z,102670.51
2017-11-06T14:44:55.125Z,102671.21
2017-11-06T14:47:23.420Z,102671.63
2017-11-06T14:49:51.802Z,102679.33
2017-11-06T14:52:20.120Z,102672.88
2017-11-06T14:54:48.438Z,102672.48
2017-11-06T14:57:16.748Z,102678.84
2017-11-06T14:59:45.056Z,102687.20
2017-11-06T15:02:13.402Z,102688.05
2017-11-06T15:04:42.547Z,102692.08
2017-11-06T15:07:10.878Z,102686.53
2017-11-06T15:09:40.539Z,102690.20
2017-11-06T15:12:08.836Z,102690.87
2017-11-06T15:14:37.190Z,102692.39
2017-11-06T15:17:05.589Z,102690.52
2017-11-06T15:19:33.886Z,102688.86
2017-11-06T15:22:02.273Z,102689.50
2017-11-06T15:24:30.591Z,102696.75
2017-11-06T15:26:59.661Z,102695.23
2017-11-06T15:29:27.984Z,102687.79
2017-11-06T15:31:56.369Z,102691.64
2017-11-06T15:34:24.790Z,102691.30
2017-11-06T15:36:53.103Z,102688.46
2017-11-06T15:39:22.162Z,102687.39
2017-11-06T15:41:50.468Z,102690.63
2017-11-06T15:44:19.542Z,102690.13
2017-11-06T15:46:47.860Z,102690.19
2017-11-06T15:49:16.165Z,102693.59
2017-11-06T15:51:44.478Z,102691.97
2017-11-06T15:54:12.869Z,102684.13
2017-11-06T15:56:41.201Z,102686.80
2017-11-06T15:59:10.346Z,102680.33
2017-11-06T16:01:38.669Z,102689.64
2017-11-06T16:04:07.020Z,102690.22
2017-11-06T16:06:35.369Z,102689.58
2017-11-06T16:09:03.857Z,102690.38
2017-11-06T16:11:32.148Z,102703.78
2017-11-06T16:14:00.461Z,102700.91
2017-11-06T16:16:28.762Z,102700.10
2017-11-06T16:18:57.122Z,102698.42
2017-11-06T16:21:25.432Z,102698.91
2017-11-06T16:23:54.562Z,102704.00
2017-11-06T16:26:22.854Z,102701.84
2017-11-06T16:28:51.156Z,102702.45
2017-11-06T16:31:19.472Z,102705.47
2017-11-06T16:33:47.808Z,102708.50
2017-11-06T16:36:16.101Z,102709.95
2017-11-06T16:38:44.396Z,102705.93
2017-11-06T16:41:12.692Z,102718.16
2017-11-06T16:43:41.001Z,102711.34
2017-11-06T16:46:09.312Z,102715.14
2017-11-06T16:48:37.681Z,102714.32
2017-11-06T16:51:05.976Z,102712.69
2017-11-06T16:53:34.277Z,102722.95
2017-11-06T16:56:02.572Z,102718.45
2017-11-06T16:58:30.866Z,102720.97
2017-11-06T17:00:59.169Z,102731.05
2017-11-06T17:03:27.462Z,102722.42
2017-11-06T17:05:55.776Z,102733.16
2017-11-06T17:08:24.108Z,102733.17
2017-11-06T17:10:53.256Z,102732.13
2017-11-06T17:13:21.570Z,102730.27
2017-11-06T17:15:49.862Z,102727.33
2017-11-06T17:18:18.946Z,102732.45
2017-11-06T17:20:48.887Z,102729.80
2017-11-06T17:23:17.938Z,102732.22
2017-11-06T17:25:46.260Z,102734.67
2017-11-06T17:28:15.317Z,102736.71
2017-11-06T17:30:43.632Z,102737.98
2017-11-06T17:33:11.953Z,102736.27
2017-11-06T17:35:40.246Z,102738.44
2017-11-06T17:38:08.540Z,102735.95
2017-11-06T17:40:36.856Z,102737.28
2017-11-06T17:43:05.145Z,102743.10
2017-11-06T17:45:34.204Z,102739.98
2017-11-06T17:48:02.500Z,102738.92
2017-11-06T17:50:32.303Z,102745.09
2017-11-06T17:53:00.606Z,102741.38
2017-11-06T17:55:28.892Z,102746.80
2017-11-06T17:57:58.125Z,102743.79
2017-11-06T18:00:26.423Z,102743.09
2017-11-06T18:02:59.480Z,102741.83
2017-11-06T18:05:28.546Z,102745.25
2017-11-06T18:07:56.841Z,102753.45
2017-11-06T18:10:25.131Z,102751.06
2017-11-06T18:12:54.201Z,102747.65
2017-11-06T18:15:22.526Z,102746.45
2017-11-06T18:17:51.608Z,102752.92
2017-11-06T18:20:19.944Z,102749.20
2017-11-06T18:22:48.231Z,102754.11
2017-11-06T18:25:16.609Z,102761.03
2017-11-06T18:27:45.621Z,102755.00
2017-11-06T18:30:13.916Z,102761.02
2017-11-06T18:32:42.234Z,102760.91
2017-11-06T18:35:11.309Z,102762.64
2017-11-06T18:37:39.614Z,102757.41
2017-11-06T18:40:08.680Z,102764.38
2017-11-06T18:42:36.980Z,102760.75
2017-11-06T18:45:06.047Z,102768.80
2017-11-06T18:47:35.071Z,102768.73
2017-11-06T18:50:03.383Z,102763.97
2017-11-06T18:52:31.669Z,102761.73
2017-11-06T18:54:59.955Z,102762.44
2017-11-06T18:57:28.277Z,102765.66
2017-11-06T18:59:56.734Z,102766.63
2017-11-06T19:02:25.075Z,102763.06
2017-11-06T19:04:53.452Z,102768.02
2017-11-06T19:07:22.516Z,102765.08
2017-11-06T19:09:50.825Z,102765.36
2017-11-06T19:12:19.113Z,102769.49
2017-11-06T19:14:47.409Z,102770.67
2017-11-06T19:17:16.485Z,102775.98
2017-11-06T19:19:44.785Z,102771.71
2017-11-06T19:22:13.840Z,102774.02
2017-11-06T19:24:42.153Z,102779.44
2017-11-06T19:27:10.452Z,102774.44
2017-11-06T19:29:38.776Z,102777.39
2017-11-06T19:32:07.129Z,102778.11
2017-11-06T19:34:35.438Z,102779.58
2017-11-06T19:37:03.771Z,102782.52
2017-11-06T19:39:32.823Z,102782.66
2017-11-06T19:42:01.124Z,102783.33
2017-11-06T19:44:29.677Z,102784.52
2017-11-06T19:46:57.972Z,102778.06
2017-11-06T19:49:26.304Z,102783.73
2017-11-06T19:51:55.368Z,102785.75
2017-11-06T19:54:23.851Z,102787.80
2017-11-06T19:56:53.123Z,102780.78
2017-11-06T19:59:21.475Z,102779.22
2017-11-06T20:01:50.544Z,102773.42
2017-11-06T20:04:18.835Z,102769.58
2017-11-06T20:06:48.292Z,102777.62
2017-11-06T20:09:16.602Z,102777.52
2017-11-06T20:11:44.908Z,102780.52
2017-11-06T20:14:13.237Z,102780.12
2017-11-06T20:16:41.527Z,102788.95
2017-11-06T20:19:10.101Z,102782.48
2017-11-06T20:21:38.397Z,102785.83
2017-11-06T20:24:06.687Z,102785.83
2017-11-06T20:26:34.980Z,102786.07
2017-11-06T20:29:03.287Z,102789.20
2017-11-06T20:31:31.576Z,102791.63
2017-11-06T20:33:59.861Z,102794.42
2017-11-06T20:36:28.937Z,102793.38
2017-11-06T20:38:57.221Z,102789.48
2017-11-06T20:41:26.296Z,102794.54
2017-11-06T20:43:54.606Z,102794.12
2017-11-06T20:46:23.051Z,102789.33
2017-11-06T20:48:51.407Z,102790.27
2017-11-06T20:51:19.711Z,102784.92
2017-11-06T20:53:48.007Z,102786.26
2017-11-06T20:56:16.361Z,102787.69
2017-11-06T20:58:44.653Z,102783.89
2017-11-06T21:01:12.949Z,102783.54
2017-11-06T21:03:41.341Z,102787.10
2017-11-06T21:06:09.648Z,102791.45
2017-11-06T21:08:37.943Z,102788.01
2017-11-06T21:11:07.008Z,102794.78
2017-11-06T21:13:35.304Z,102796.85
2017-11-06T21:16:05.117Z,102794.68
2017-11-06T21:18:33.434Z,102793.09
2017-11-06T21:21:02.546Z,102796.23
2017-11-06T21:23:30.847Z,102800.81
2017-11-06T21:25:59.131Z,102791.92
2017-11-06T21:28:27.512Z,102793.33
2017-11-06T21:30:55.810Z,102787.20
2017-11-06T21:33:24.123Z,102789.01
2017-11-06T21:35:52.444Z,102790.89
2017-11-06T21:38:20.761Z,102783.08
2017-11-06T21:40:49.101Z,102780.81
2017-11-06T21:43:17.387Z,102782.83
2017-11-06T21:45:45.697Z,102783.67
2017-11-06T21:48:14.075Z,102790.05
2017-11-06T21:50:42.374Z,102781.92
2017-11-06T21:53:10.680Z,102784.86
2017-11-06T21:55:39.728Z,102794.10
2017-11-06T21:58:08.046Z,102794.10
2017-11-06T22:00:36.460Z,102795.07
2017-11-06T22:03:04.745Z,102794.94
2017-11-06T22:05:33.041Z,102792.41
2017-11-06T22:08:01.330Z,102795.33
2017-11-06T22:10:29.625Z,102787.06
2017-11-06T22:12:57.922Z,102788.09
2017-11-06T22:15:26.223Z,102796.39
2017-11-06T22:17:55.317Z,102800.14
2017-11-06T22:20:24.371Z,102792.91
2017-11-06T22:22:52.677Z,102795.44
2017-11-06T22:25:21.036Z,102793.27
2017-11-06T22:27:49.343Z,102794.38
2017-11-06T22:30:17.730Z,102789.97
2017-11-06T22:32:46.024Z,102785.08
2017-11-06T22:35:15.080Z,102784.59
2017-11-06T22:37:43.362Z,102785.08
2017-11-06T22:40:11.660Z,102781.67
2017-11-06T22:42:40.052Z,102782.58
2017-11-06T22:45:08.339Z,102775.91
2017-11-06T22:47:36.647Z,102776.88
2017-11-06T22:50:05.775Z,102774.51
2017-11-06T22:52:34.069Z,102783.39
2017-11-06T22:55:02.369Z,102785.69
2017-11-06T22:57:30.680Z,102786.97
2017-11-06T22:59:58.975Z,102790.39
2017-11-06T23:02:28.021Z,102790.16
2017-11-06T23:04:56.361Z,102783.84
2017-11-06T23:07:25.585Z,102784.16
2017-11-06T23:09:53.885Z,102785.05
2017-11-06T23:12:22.197Z,102781.52
2017-11-06T23:14:50.482Z,102771.42
2017-11-06T23:17:20.296Z,102776.92
2017-11-06T23:19:50.096Z,102763.91
2017-11-06T23:22:18.441Z,102762.83
2017-11-06T23:24:46.739Z,102770.91
2017-11-06T23:27:15.023Z,102778.67
2017-11-06T23:29:43.315Z,102775.11
2017-11-06T23:32:11.604Z,102771.92
2017-11-06T23:34:39.932Z,102770.48
2017-11-06T23:37:09.007Z,102766.49
2017-11-06T23:39:38.086Z,102766.01
2017-11-06T23:42:06.375Z,102770.05
2017-11-06T23:44:34.664Z,102766.67
2017-11-06T23:47:02.958Z,102773.80
2017-11-06T23:49:32.018Z,102764.57
2017-11-06T23:52:00.412Z,102777.95
2017-11-06T23:54:28.776Z,102779.16
2017-11-06T23:56:57.150Z,102774.46
2017-11-06T23:59:25.460Z,102762.34
